Time;durP1;ratioP1;P1;durP2;ratioP2;P2;SDS_P1;SDS_P2;PMS_P1;PMS_P2;Temp;Humidity;BMP_temperature;BMP_pressure;BME280_temperature;BME280_humidity;BME280_pressure;Samples;Min_cycle;Max_cycle;Signal;HPM_P1;HPM_P2
2021/01/22 00:01:59;;;;;;;6.15;0.70;;;9.50;99.90;;;;;;5040673;28;20048;-80
2021/01/22 00:04:27;;;;;;;6.95;0.52;;;9.50;99.90;;;;;;5021056;28;20057;-80
2021/01/22 00:06:54;;;;;;;8.60;0.50;;;9.50;99.90;;;;;;5012684;28;20049;-80
2021/01/22 00:09:21;;;;;;;4.10;0.70;;;9.50;99.90;;;;;;5042710;28;20049;-80
2021/01/22 00:11:47;;;;;;;11.05;0.57;;;9.40;99.90;;;;;;5022352;28;20049;-80
2021/01/22 00:14:14;;;;;;;10.90;0.80;;;9.40;99.90;;;;;;5044177;28;20050;-80
2021/01/22 00:16:41;;;;;;;7.95;0.60;;;9.40;99.90;;;;;;5042783;28;20060;-80
2021/01/22 00:19:09;;;;;;;11.27;0.55;;;9.30;99.90;;;;;;5023596;28;20056;-80
2021/01/22 00:21:36;;;;;;;3.38;0.38;;;9.30;99.90;;;;;;5039683;28;20105;-80
2021/01/22 00:24:04;;;;;;;5.32;0.30;;;9.40;99.90;;;;;;5038169;28;20076;-80
2021/01/22 00:26:30;;;;;;;7.40;0.38;;;9.30;99.90;;;;;;5044074;28;20038;-81
2021/01/22 00:28:57;;;;;;;11.68;0.32;;;9.40;99.90;;;;;;5020921;28;20064;-80
2021/01/22 00:31:24;;;;;;;4.65;0.43;;;9.40;99.90;;;;;;5033760;28;20052;-80
2021/01/22 00:33:50;;;;;;;4.53;0.40;;;9.40;99.90;;;;;;5036861;28;20053;-80
2021/01/22 00:36:16;;;;;;;2.30;0.80;;;9.40;99.90;;;;;;5034606;28;20045;-80
2021/01/22 00:38:43;;;;;;;4.20;0.40;;;9.40;99.90;;;;;;5024153;28;20049;-80
2021/01/22 00:41:09;;;;;;;9.02;0.50;;;9.40;99.90;;;;;;5041122;28;20045;-80
2021/01/22 00:43:37;;;;;;;10.48;0.80;;;9.40;99.90;;;;;;5025185;28;20487;-80
2021/01/22 00:46:03;;;;;;;7.00;0.85;;;9.40;99.90;;;;;;5040672;28;20056;-80
2021/01/22 00:48:38;;;;;;;6.13;0.40;;;9.50;99.90;;;;;;5041611;28;20153;-80
2021/01/22 00:51:04;;;;;;;9.20;0.65;;;9.40;99.90;;;;;;5041321;28;20055;-80
2021/01/22 00:53:31;;;;;;;10.48;1.75;;;9.40;99.90;;;;;;5042346;28;20121;-80
2021/01/22 00:55:57;;;;;;;6.30;0.43;;;9.40;99.90;;;;;;5034310;28;20298;-80
2021/01/22 00:58:24;;;;;;;6.50;0.40;;;9.30;99.90;;;;;;5034607;28;20432;-80
2021/01/22 01:00:50;;;;;;;9.68;0.40;;;9.30;99.90;;;;;;5042819;28;20041;-80
2021/01/22 01:03:17;;;;;;;8.02;0.32;;;9.30;99.90;;;;;;5023541;28;20410;-80
2021/01/22 01:05:44;;;;;;;4.45;0.20;;;9.20;99.90;;;;;;5043076;28;20045;-80
2021/01/22 01:08:10;;;;;;;1.55;0.30;;;9.20;99.90;;;;;;5041101;28;20056;-80
2021/01/22 01:10:37;;;;;;;5.28;0.30;;;9.20;99.90;;;;;;5023564;28;20459;-80
2021/01/22 01:13:03;;;;;;;3.85;0.45;;;9.20;99.90;;;;;;5041607;28;20041;-80
2021/01/22 01:15:30;;;;;;;3.88;0.32;;;9.20;99.90;;;;;;5044218;28;20049;-80
2021/01/22 01:17:56;;;;;;;7.45;0.40;;;9.20;99.90;;;;;;5041445;28;20045;-80
2021/01/22 01:20:24;;;;;;;1.77;0.30;;;9.20;99.90;;;;;;5038918;28;20096;-80
2021/01/22 01:22:51;;;;;;;2.25;0.40;;;9.20;99.90;;;;;;5015266;28;20132;-80
2021/01/22 01:25:18;;;;;;;8.10;0.40;;;9.20;99.90;;;;;;5020029;28;20053;-80
2021/01/22 01:27:47;;;;;;;7.40;0.40;;;9.20;99.90;;;;;;5027284;28;20063;-80
2021/01/22 01:30:14;;;;;;;5.35;1.13;;;9.20;99.90;;;;;;5041173;28;20072;-80
2021/01/22 01:32:41;;;;;;;3.90;0.30;;;9.20;99.90;;;;;;5040598;28;20045;-80
2021/01/22 01:35:08;;;;;;;4.30;0.57;;;9.20;99.90;;;;;;5025072;28;20077;-80
2021/01/22 01:37:35;;;;;;;3.15;0.75;;;9.20;99.90;;;;;;5024010;28;20056;-80
2021/01/22 01:40:03;;;;;;;5.22;0.40;;;9.20;99.90;;;;;;5021792;28;20063;-80
2021/01/22 01:42:30;;;;;;;7.30;0.43;;;9.30;99.90;;;;;;5025476;28;20449;-80
2021/01/22 01:44:56;;;;;;;2.67;0.30;;;9.20;99.90;;;;;;5039990;28;20053;-80
2021/01/22 01:47:23;;;;;;;6.53;0.88;;;9.30;99.90;;;;;;5023571;28;20068;-80
2021/01/22 01:49:50;;;;;;;2.97;0.30;;;9.20;99.90;;;;;;5042494;28;20128;-80
2021/01/22 01:52:17;;;;;;;7.47;1.58;;;9.30;99.90;;;;;;5024011;28;20064;-80
2021/01/22 01:54:44;;;;;;;5.28;0.40;;;9.30;99.90;;;;;;5040405;28;20041;-80
2021/01/22 01:57:13;;;;;;;6.60;0.80;;;9.30;99.90;;;;;;5040085;28;20401;-80
2021/01/22 01:59:40;;;;;;;3.72;0.40;;;9.30;99.90;;;;;;5037535;28;20056;-80
2021/01/22 02:02:07;;;;;;;4.95;0.45;;;9.30;99.90;;;;;;5040815;28;20053;-80
2021/01/22 02:04:33;;;;;;;3.55;0.40;;;9.30;99.90;;;;;;5020038;28;20076;-80
2021/01/22 02:07:01;;;;;;;5.68;0.45;;;9.30;99.90;;;;;;5012665;28;20053;-80
2021/01/22 02:09:28;;;;;;;2.63;0.38;;;9.30;99.90;;;;;;5037090;28;20053;-80
2021/01/22 02:11:56;;;;;;;8.40;0.30;;;9.30;99.90;;;;;;5035481;28;20049;-80
2021/01/22 02:14:23;;;;;;;2.72;0.30;;;9.30;99.90;;;;;;5021806;28;20049;-80
2021/01/22 02:16:50;;;;;;;7.28;0.73;;;9.30;99.90;;;;;;5034833;28;20045;-80
2021/01/22 02:19:24;;;;;;;8.85;0.60;;;9.30;99.90;;;;;;5017579;28;20050;-80
2021/01/22 02:21:50;;;;;;;4.78;0.30;;;9.30;99.90;;;;;;5017981;28;20046;-80
2021/01/22 02:24:22;;;;;;;4.55;0.45;;;9.30;99.90;;;;;;5017999;28;20045;-80
2021/01/22 02:26:53;;;;;;;5.13;0.70;;;9.30;99.90;;;;;;5039323;28;20132;-80
2021/01/22 02:29:20;;;;;;;5.47;1.02;;;9.30;99.90;;;;;;5023522;28;20046;-80
2021/01/22 02:31:50;;;;;;;3.53;0.40;;;9.30;99.90;;;;;;5023220;28;20054;-80
2021/01/22 02:34:25;;;;;;;2.85;0.30;;;9.30;99.90;;;;;;5018827;28;20061;-80
2021/01/22 02:36:57;;;;;;;5.65;0.50;;;9.40;99.90;;;;;;5038897;28;20045;-80
2021/01/22 02:39:31;;;;;;;6.22;0.65;;;9.50;99.90;;;;;;5038677;28;20056;-80
2021/01/22 02:41:58;;;;;;;6.93;0.30;;;9.40;99.90;;;;;;5038090;28;20105;-81
2021/01/22 02:44:25;;;;;;;2.33;0.40;;;9.50;99.90;;;;;;5010875;28;20056;-81
2021/01/22 02:46:52;;;;;;;7.00;0.50;;;9.60;99.90;;;;;;5020932;28;20050;-80
2021/01/22 02:49:19;;;;;;;5.07;0.55;;;9.60;99.90;;;;;;5038817;28;20057;-80
2021/01/22 02:51:46;;;;;;;6.05;0.30;;;9.60;99.90;;;;;;5041849;28;20049;-80
2021/01/22 02:54:13;;;;;;;2.50;0.30;;;9.70;99.90;;;;;;5040937;28;20153;-80
2021/01/22 02:56:55;;;;;;;4.30;0.40;;;9.60;99.90;;;;;;5038904;28;20048;-80
2021/01/22 02:59:27;;;;;;;5.85;0.30;;;9.60;99.90;;;;;;5037659;28;20060;-81
2021/01/22 03:02:15;;;;;;;8.60;0.40;;;9.60;99.90;;;;;;5023632;28;20426;-81
2021/01/22 03:04:42;;;;;;;9.82;0.32;;;9.50;99.90;;;;;;5037390;28;20057;-80
2021/01/22 03:07:14;;;;;;;3.05;1.23;;;9.50;99.90;;;;;;5021008;28;20046;-81
2021/01/22 03:09:45;;;;;;;2.60;0.40;;;9.60;99.90;;;;;;5012374;28;20072;-81
2021/01/22 03:12:15;;;;;;;4.63;0.43;;;9.50;99.90;;;;;;5035159;28;20056;-80
2021/01/22 03:14:42;;;;;;;4.32;0.40;;;9.50;99.90;;;;;;5039193;28;20289;-80
2021/01/22 03:17:09;;;;;;;8.02;0.40;;;9.40;99.90;;;;;;5020572;28;20049;-80
2021/01/22 03:19:48;;;;;;;5.30;0.40;;;9.40;99.90;;;;;;5023178;28;20124;-81
2021/01/22 03:22:15;;;;;;;3.47;0.90;;;9.40;99.90;;;;;;5040536;28;20117;-80
2021/01/22 03:24:42;;;;;;;7.25;0.75;;;9.40;99.90;;;;;;5038741;28;20057;-80
2021/01/22 03:27:09;;;;;;;7.40;0.35;;;9.40;99.90;;;;;;5022676;28;20058;-80
2021/01/22 03:29:36;;;;;;;3.13;0.30;;;9.40;99.90;;;;;;5039151;28;20072;-80
2021/01/22 03:32:05;;;;;;;6.07;0.40;;;9.40;99.90;;;;;;5039225;28;20053;-80
2021/01/22 03:34:33;;;;;;;6.32;0.40;;;9.40;99.90;;;;;;5022380;28;20068;-80
2021/01/22 03:37:01;;;;;;;5.28;0.30;;;9.40;99.90;;;;;;5025402;28;20721;-80
2021/01/22 03:39:28;;;;;;;5.35;0.32;;;9.40;99.90;;;;;;5040593;28;20060;-80
2021/01/22 03:41:55;;;;;;;4.13;0.45;;;9.40;99.90;;;;;;5039719;28;20053;-80
2021/01/22 03:44:22;;;;;;;1.98;0.20;;;9.30;99.90;;;;;;5038935;28;20072;-80
2021/01/22 03:46:48;;;;;;;5.60;0.30;;;9.30;99.90;;;;;;5039939;28;20049;-80
2021/01/22 03:49:15;;;;;;;3.92;0.85;;;9.30;99.90;;;;;;5042852;28;20068;-80
2021/01/22 03:51:42;;;;;;;4.05;0.20;;;9.40;99.90;;;;;;5045268;28;20046;-80
2021/01/22 03:54:08;;;;;;;2.83;0.43;;;9.40;99.90;;;;;;5042440;28;20052;-80
2021/01/22 03:56:35;;;;;;;2.30;0.25;;;9.30;99.90;;;;;;5044976;28;20048;-80
2021/01/22 03:59:02;;;;;;;10.52;0.35;;;9.30;99.90;;;;;;5039757;28;20064;-80
2021/01/22 04:01:29;;;;;;;2.40;0.40;;;9.30;99.90;;;;;;5043702;28;20050;-80
2021/01/22 04:03:56;;;;;;;7.53;0.30;;;9.30;99.90;;;;;;5039646;28;20052;-80
2021/01/22 04:06:22;;;;;;;0.93;0.30;;;9.30;99.90;;;;;;5044395;28;20057;-80
2021/01/22 04:08:49;;;;;;;3.08;0.20;;;9.30;99.90;;;;;;5023244;28;20050;-81
2021/01/22 04:11:16;;;;;;;1.55;0.10;;;9.30;99.90;;;;;;5039908;28;20055;-80
2021/01/22 04:13:48;;;;;;;1.05;0.00;;;9.30;99.90;;;;;;5042008;28;20059;-80
2021/01/22 04:16:15;;;;;;;1.88;0.10;;;9.30;99.90;;;;;;5041255;28;20417;-80
2021/01/22 04:18:42;;;;;;;0.85;0.10;;;9.30;99.90;;;;;;5025083;28;20516;-80
2021/01/22 04:21:09;;;;;;;1.30;0.10;;;9.30;99.90;;;;;;5038071;28;20054;-80
2021/01/22 04:23:36;;;;;;;1.80;0.00;;;9.30;99.90;;;;;;5042619;28;20136;-80
2021/01/22 04:26:02;;;;;;;0.80;0.10;;;9.30;99.90;;;;;;5022594;28;20060;-80
2021/01/22 04:28:29;;;;;;;3.03;0.20;;;9.30;99.90;;;;;;5040891;28;20063;-80
2021/01/22 04:30:55;;;;;;;1.95;0.20;;;9.40;99.90;;;;;;5023873;28;20056;-80
2021/01/22 04:33:22;;;;;;;3.03;0.10;;;9.40;99.90;;;;;;5032650;28;20041;-80
2021/01/22 04:35:49;;;;;;;1.85;0.10;;;9.40;99.90;;;;;;5042129;28;20117;-80
2021/01/22 04:38:16;;;;;;;0.10;0.00;;;9.40;99.90;;;;;;5020965;28;20049;-80
2021/01/22 04:40:43;;;;;;;3.05;0.10;;;9.40;99.90;;;;;;5038131;28;20045;-80
2021/01/22 04:43:09;;;;;;;0.10;0.00;;;9.40;99.90;;;;;;5024308;28;20053;-80
2021/01/22 04:45:37;;;;;;;0.80;0.00;;;9.40;99.90;;;;;;5041005;28;20057;-80
2021/01/22 04:48:05;;;;;;;1.65;0.00;;;9.40;99.90;;;;;;5043285;28;20072;-80
2021/01/22 04:50:33;;;;;;;1.70;0.10;;;9.40;99.90;;;;;;5023574;28;20065;-80
2021/01/22 04:53:06;;;;;;;0.22;0.05;;;9.40;99.90;;;;;;5026469;28;20061;-80
2021/01/22 04:55:35;;;;;;;1.55;0.10;;;9.50;99.90;;;;;;5035154;28;20046;-80
2021/01/22 04:58:07;;;;;;;0.35;0.10;;;9.40;99.90;;;;;;5022537;28;20060;-81
2021/01/22 05:00:35;;;;;;;5.05;0.40;;;9.40;99.90;;;;;;5041070;28;20044;-81
2021/01/22 05:03:02;;;;;;;3.70;0.10;;;9.40;99.90;;;;;;5022646;28;20057;-81
2021/01/22 05:05:29;;;;;;;3.13;0.08;;;9.30;99.90;;;;;;5041685;28;20053;-81
2021/01/22 05:07:55;;;;;;;2.25;0.00;;;9.30;99.90;;;;;;5023081;28;20060;-81
2021/01/22 05:10:22;;;;;;;2.05;0.10;;;9.30;99.90;;;;;;5035161;28;20068;-81
2021/01/22 05:12:49;;;;;;;1.67;0.13;;;9.20;99.90;;;;;;5042222;28;20052;-81
2021/01/22 05:15:25;;;;;;;0.95;0.00;;;9.20;99.90;;;;;;5025999;28;20065;-81
2021/01/22 05:17:56;;;;;;;1.65;0.00;;;9.20;99.90;;;;;;5039853;28;20049;-81
2021/01/22 05:20:28;;;;;;;0.10;0.00;;;9.20;99.90;;;;;;5039348;28;20053;-81
2021/01/22 05:22:56;;;;;;;1.27;0.30;;;9.20;99.90;;;;;;5037549;28;20049;-80
2021/01/22 05:25:23;;;;;;;1.25;0.10;;;9.30;99.90;;;;;;5041565;28;20060;-80
2021/01/22 05:27:54;;;;;;;0.20;0.00;;;9.30;99.90;;;;;;5025243;28;20105;-80
2021/01/22 05:30:26;;;;;;;0.70;0.20;;;9.50;99.90;;;;;;5020901;28;20068;-80
2021/01/22 05:33:16;;;;;;;1.80;0.20;;;9.40;99.90;;;;;;5016706;28;20050;-80
2021/01/22 05:35:43;;;;;;;2.60;0.10;;;9.40;99.90;;;;;;5041983;28;20122;-80
2021/01/22 05:38:11;;;;;;;1.33;0.60;;;9.40;99.90;;;;;;5037781;28;20057;-80
2021/01/22 05:40:47;;;;;;;3.28;0.20;;;9.40;99.90;;;;;;5034265;28;20101;-80
2021/01/22 05:43:13;;;;;;;1.75;0.63;;;9.50;99.90;;;;;;5019909;28;20049;-80
2021/01/22 05:45:45;;;;;;;3.25;0.20;;;9.50;99.90;;;;;;5039461;28;20052;-80
2021/01/22 05:48:22;;;;;;;5.85;0.22;;;9.60;99.90;;;;;;5040633;28;20049;-80
2021/01/22 05:50:57;;;;;;;10.07;0.43;;;9.70;99.90;;;;;;5039396;28;20057;-80
2021/01/22 05:53:25;;;;;;;5.10;0.38;;;9.60;99.90;;;;;;5024615;28;20125;-80
2021/01/22 05:56:13;;;;;;;6.85;0.65;;;9.60;99.90;;;;;;5024162;28;20087;-81
2021/01/22 05:58:42;;;;;;;8.95;0.30;;;9.60;99.90;;;;;;5016537;28;20061;-81
2021/01/22 06:01:18;;;;;;;4.18;0.75;;;9.70;99.90;;;;;;5023233;28;20136;-81
2021/01/22 06:03:49;;;;;;;6.97;0.40;;;9.60;99.90;;;;;;5020678;28;20057;-80
2021/01/22 06:06:17;;;;;;;7.55;0.30;;;9.60;99.90;;;;;;5040848;28;20051;-80
2021/01/22 06:08:52;;;;;;;4.13;0.50;;;9.70;99.90;;;;;;5033297;28;20385;-80
2021/01/22 06:11:24;;;;;;;11.00;0.50;;;9.70;99.90;;;;;;5021070;28;20111;-80
2021/01/22 06:13:52;;;;;;;11.55;0.30;;;9.70;99.90;;;;;;5038885;28;20459;-80
2021/01/22 06:16:20;;;;;;;1.10;0.20;;;9.60;99.90;;;;;;5035127;28;20042;-80
2021/01/22 06:19:01;;;;;;;8.05;0.20;;;9.60;99.90;;;;;;5035254;28;20092;-81
2021/01/22 06:21:32;;;;;;;3.08;0.15;;;9.60;99.90;;;;;;5017461;28;20045;-80
2021/01/22 06:24:04;;;;;;;6.53;1.20;;;9.70;99.90;;;;;;5039580;28;20107;-80
2021/01/22 06:26:33;;;;;;;4.82;0.30;;;9.60;99.90;;;;;;5037636;28;20042;-81
2021/01/22 06:29:05;;;;;;;7.05;0.30;;;9.60;99.90;;;;;;5033830;28;20049;-81
2021/01/22 06:31:32;;;;;;;16.55;0.57;;;9.60;99.90;;;;;;5022389;28;20508;-81
2021/01/22 06:34:00;;;;;;;6.85;0.50;;;9.60;99.90;;;;;;5008342;28;20068;-81
2021/01/22 06:36:27;;;;;;;8.85;0.30;;;9.50;99.90;;;;;;5032174;28;20056;-81
2021/01/22 06:38:55;;;;;;;3.03;0.40;;;9.50;99.90;;;;;;5028439;28;20053;-81
2021/01/22 06:41:26;;;;;;;8.90;0.40;;;9.50;99.90;;;;;;5010527;28;20045;-81
2021/01/22 06:43:57;;;;;;;4.45;1.13;;;9.50;99.90;;;;;;5029271;28;20144;-81
2021/01/22 06:46:29;;;;;;;5.63;0.30;;;9.40;99.90;;;;;;5012859;28;20053;-81
2021/01/22 06:49:01;;;;;;;2.78;0.20;;;9.40;99.90;;;;;;5031591;28;20052;-80
2021/01/22 06:51:30;;;;;;;5.50;0.32;;;9.40;99.90;;;;;;5012919;28;20060;-79
2021/01/22 06:54:08;;;;;;;6.07;0.20;;;9.40;99.90;;;;;;5014760;28;20451;-79
2021/01/22 06:56:54;;;;;;;4.70;0.63;;;9.40;99.90;;;;;;5013524;28;20137;-80
2021/01/22 06:59:28;;;;;;;5.43;0.20;;;9.40;99.90;;;;;;5013766;28;20301;-80
2021/01/22 07:01:56;;;;;;;3.45;0.40;;;9.40;99.90;;;;;;5027250;28;20064;-80
2021/01/22 07:04:33;;;;;;;5.20;0.30;;;9.30;99.90;;;;;;5011322;28;20049;-80
2021/01/22 07:07:02;;;;;;;2.22;0.28;;;9.30;99.90;;;;;;5032981;28;20052;-80
2021/01/22 07:09:41;;;;;;;5.70;0.50;;;9.30;99.90;;;;;;5012579;28;20486;-80
2021/01/22 07:12:12;;;;;;;6.35;0.30;;;9.40;99.90;;;;;;5029686;28;20131;-80
2021/01/22 07:14:45;;;;;;;2.88;0.30;;;9.40;99.90;;;;;;5031246;28;20083;-80
2021/01/22 07:17:15;;;;;;;5.80;0.20;;;9.40;99.90;;;;;;5028062;28;20269;-80
2021/01/22 07:19:54;;;;;;;4.47;0.20;;;9.40;99.90;;;;;;5014562;28;20064;-79
2021/01/22 07:22:21;;;;;;;5.50;0.30;;;9.40;99.90;;;;;;5023559;28;20053;-79
2021/01/22 07:24:53;;;;;;;6.72;0.40;;;9.40;99.90;;;;;;5022257;28;20038;-79
2021/01/22 07:27:19;;;;;;;9.15;0.57;;;9.40;99.90;;;;;;5032345;28;20064;-79
2021/01/22 07:30:11;;;;;;;9.65;0.52;;;9.40;99.90;;;;;;5011136;28;20506;-79
2021/01/22 07:32:38;;;;;;;4.85;0.40;;;9.40;99.90;;;;;;5030966;28;20046;-79
2021/01/22 07:35:07;;;;;;;4.35;0.40;;;9.40;99.90;;;;;;5013849;28;20041;-79
2021/01/22 07:37:39;;;;;;;7.93;0.60;;;9.50;99.90;;;;;;5014121;28;20168;-79
2021/01/22 07:40:10;;;;;;;5.47;0.38;;;9.50;99.90;;;;;;5011596;28;20386;-79
2021/01/22 07:42:38;;;;;;;1.85;0.20;;;9.50;99.90;;;;;;5027982;28;20056;-79
2021/01/22 07:45:17;;;;;;;4.90;0.50;;;9.60;99.90;;;;;;5000008;28;20114;-79
2021/01/22 07:47:46;;;;;;;3.22;0.20;;;9.60;99.90;;;;;;5026903;28;20045;-79
2021/01/22 07:50:15;;;;;;;5.55;0.30;;;9.60;99.90;;;;;;5011920;28;20471;-79
2021/01/22 07:52:46;;;;;;;6.78;0.30;;;9.60;99.90;;;;;;5030127;28;20049;-79
2021/01/22 07:55:18;;;;;;;4.70;0.30;;;9.60;99.90;;;;;;5030793;28;20053;-79
2021/01/22 07:57:46;;;;;;;2.70;0.60;;;9.60;99.90;;;;;;5013164;28;20045;-79
2021/01/22 08:00:16;;;;;;;7.40;0.30;;;9.70;99.90;;;;;;5027252;28;20049;-79
2021/01/22 08:02:57;;;;;;;5.63;0.30;;;9.80;99.90;;;;;;5007181;28;20059;-79
2021/01/22 08:05:40;;;;;;;2.00;0.25;;;9.80;99.90;;;;;;5030717;28;20109;-79
2021/01/22 08:08:22;;;;;;;2.83;0.22;;;9.80;99.90;;;;;;5012719;28;20045;-79
2021/01/22 08:10:49;;;;;;;10.50;0.85;;;9.80;99.90;;;;;;5017752;28;20065;-79
2021/01/22 08:13:15;;;;;;;4.65;0.50;;;9.80;99.90;;;;;;5023221;28;20042;-79
2021/01/22 08:15:44;;;;;;;4.35;0.20;;;9.80;99.90;;;;;;5032230;28;20092;-79
2021/01/22 08:18:15;;;;;;;4.53;0.40;;;9.90;99.90;;;;;;5030672;28;20073;-79
2021/01/22 08:20:51;;;;;;;7.93;0.45;;;9.90;99.90;;;;;;5024922;28;20053;-79
2021/01/22 08:23:21;;;;;;;6.57;0.45;;;9.90;99.90;;;;;;5020744;28;20049;-79
2021/01/22 08:25:48;;;;;;;6.00;0.43;;;9.90;99.90;;;;;;5007416;28;20042;-79
2021/01/22 08:28:15;;;;;;;5.15;0.40;;;10.00;99.90;;;;;;5023663;28;20061;-79
2021/01/22 08:30:42;;;;;;;4.47;0.20;;;9.90;99.90;;;;;;5027095;28;21541;-79
2021/01/22 08:33:08;;;;;;;3.80;0.40;;;10.00;99.90;;;;;;5033016;28;20045;-79
2021/01/22 08:35:36;;;;;;;3.25;0.30;;;10.00;99.90;;;;;;5028732;28;20463;-79
2021/01/22 08:38:03;;;;;;;3.53;0.32;;;10.10;99.90;;;;;;5018581;28;20056;-79
2021/01/22 08:40:41;;;;;;;7.63;0.32;;;10.00;99.90;;;;;;5035795;28;20052;-79
2021/01/22 08:43:15;;;;;;;7.47;0.40;;;10.00;99.90;;;;;;5032657;28;20077;-79
2021/01/22 08:46:02;;;;;;;6.93;0.40;;;10.00;99.90;;;;;;5034429;28;20068;-79
2021/01/22 08:48:29;;;;;;;4.45;0.45;;;10.00;99.90;;;;;;5017732;28;20049;-79
2021/01/22 08:51:00;;;;;;;13.15;0.63;;;10.00;99.90;;;;;;5035775;28;20053;-79
2021/01/22 08:53:27;;;;;;;4.25;0.40;;;10.00;99.90;;;;;;5030486;28;20057;-79
2021/01/22 08:56:13;;;;;;;4.70;0.50;;;10.00;99.90;;;;;;5031657;28;20418;-79
2021/01/22 08:59:03;;;;;;;4.20;0.30;;;10.00;99.90;;;;;;5036914;28;20051;-79
2021/01/22 09:01:55;;;;;;;4.60;0.30;;;9.90;99.90;;;;;;5028647;28;20125;-79
2021/01/22 09:04:27;;;;;;;9.27;0.50;;;10.00;99.90;;;;;;5030488;28;20136;-79
2021/01/22 09:06:58;;;;;;;6.47;0.50;;;10.10;99.90;;;;;;5037459;28;20060;-79
2021/01/22 09:09:43;;;;;;;6.72;0.60;;;10.10;99.90;;;;;;5017471;28;20075;-79
2021/01/22 09:12:13;;;;;;;5.60;0.52;;;10.00;99.90;;;;;;5034789;28;20057;-79
2021/01/22 09:15:04;;;;;;;6.32;0.60;;;10.00;99.90;;;;;;5009449;28;20057;-79
2021/01/22 09:17:40;;;;;;;5.28;0.40;;;10.00;99.90;;;;;;5027261;28;20444;-79
2021/01/22 09:20:09;;;;;;;10.95;0.50;;;10.00;99.90;;;;;;5034374;28;20045;-79
2021/01/22 09:22:36;;;;;;;7.65;0.40;;;10.10;99.90;;;;;;5029428;28;20056;-79
2021/01/22 09:25:08;;;;;;;6.47;0.90;;;10.10;99.90;;;;;;5015277;28;20140;-79
2021/01/22 09:27:35;;;;;;;6.72;0.40;;;10.20;99.90;;;;;;5027038;28;20054;-79
2021/01/22 09:30:04;;;;;;;8.63;0.35;;;10.20;99.90;;;;;;5031840;28;20049;-79
2021/01/22 09:32:31;;;;;;;10.00;0.50;;;10.20;99.90;;;;;;5004132;28;20046;-79
2021/01/22 09:34:58;;;;;;;6.40;0.38;;;10.20;99.90;;;;;;5025733;28;20080;-79
2021/01/22 09:37:24;;;;;;;4.68;0.40;;;10.30;99.90;;;;;;5019712;28;20049;-79
2021/01/22 09:39:51;;;;;;;8.77;0.93;;;10.30;99.90;;;;;;5033174;28;20042;-79
2021/01/22 09:42:17;;;;;;;4.07;0.45;;;10.30;99.90;;;;;;5015374;28;20054;-80
2021/01/22 09:44:44;;;;;;;7.75;0.57;;;10.30;99.90;;;;;;5018114;28;20058;-80
2021/01/22 09:47:10;;;;;;;7.20;0.30;;;10.30;99.90;;;;;;5035477;28;20049;-80
2021/01/22 09:49:38;;;;;;;6.60;0.40;;;10.40;99.90;;;;;;5023680;28;20056;-80
2021/01/22 09:52:05;;;;;;;7.60;1.52;;;10.40;99.90;;;;;;5011633;28;20059;-79
2021/01/22 09:54:32;;;;;;;4.80;0.60;;;10.40;99.90;;;;;;5035834;28;20442;-79
2021/01/22 09:56:59;;;;;;;4.82;0.45;;;10.40;99.90;;;;;;5031851;28;20055;-79
2021/01/22 09:59:25;;;;;;;4.85;0.50;;;10.30;99.90;;;;;;5002657;28;20041;-79
2021/01/22 10:01:52;;;;;;;8.45;0.40;;;10.30;99.90;;;;;;5032834;28;20060;-79
2021/01/22 10:04:19;;;;;;;3.28;0.40;;;10.40;99.90;;;;;;5012855;28;20054;-79
2021/01/22 10:06:46;;;;;;;6.00;1.40;;;10.40;99.90;;;;;;5017869;28;20052;-79
2021/01/22 10:09:13;;;;;;;6.70;0.60;;;10.50;99.90;;;;;;5012519;28;20053;-79
2021/01/22 10:11:40;;;;;;;12.23;0.93;;;10.50;99.90;;;;;;5016948;28;20050;-79
2021/01/22 10:14:07;;;;;;;12.82;0.82;;;10.50;99.90;;;;;;5028718;28;20045;-79
2021/01/22 10:16:34;;;;;;;7.35;0.50;;;10.40;99.90;;;;;;5017402;28;20050;-79
2021/01/22 10:19:02;;;;;;;6.43;0.80;;;10.40;99.90;;;;;;5030031;28;20053;-79
2021/01/22 10:21:29;;;;;;;9.18;1.10;;;10.40;99.90;;;;;;5020635;28;20133;-80
2021/01/22 10:23:57;;;;;;;7.43;0.50;;;10.40;99.90;;;;;;5014802;28;20057;-80
2021/01/22 10:26:24;;;;;;;5.75;0.50;;;10.50;99.90;;;;;;5011765;28;20073;-80
2021/01/22 10:28:52;;;;;;;4.95;0.30;;;10.50;99.90;;;;;;5031827;28;20056;-79
2021/01/22 10:31:20;;;;;;;3.38;0.65;;;10.50;99.90;;;;;;5031096;28;20053;-79
2021/01/22 10:33:48;;;;;;;7.90;1.02;;;10.50;99.90;;;;;;5013498;28;20459;-79
2021/01/22 10:36:15;;;;;;;12.43;2.00;;;10.50;99.90;;;;;;5006437;28;20456;-80
2021/01/22 10:38:43;;;;;;;7.57;0.50;;;10.50;99.90;;;;;;5018117;28;20165;-80
2021/01/22 10:41:10;;;;;;;1.42;0.30;;;10.50;99.90;;;;;;5022533;28;20058;-80
2021/01/22 10:43:38;;;;;;;2.60;0.30;;;10.50;99.90;;;;;;5010936;28;20080;-80
2021/01/22 10:46:05;;;;;;;2.05;0.30;;;10.50;99.90;;;;;;5014107;28;20069;-80
2021/01/22 10:48:31;;;;;;;7.82;0.45;;;10.60;99.90;;;;;;5029507;28;20050;-80
2021/01/22 10:50:58;;;;;;;4.28;0.35;;;10.50;99.90;;;;;;5014810;28;20041;-79
2021/01/22 10:53:25;;;;;;;2.88;0.50;;;10.50;99.90;;;;;;5032632;28;20398;-79
2021/01/22 10:55:52;;;;;;;5.65;0.50;;;10.50;99.90;;;;;;5008770;28;20049;-79
2021/01/22 10:58:19;;;;;;;4.80;0.40;;;10.50;99.90;;;;;;5012897;28;20049;-79
2021/01/22 11:00:47;;;;;;;2.88;0.40;;;10.50;99.90;;;;;;5011107;28;20056;-80
2021/01/22 11:03:13;;;;;;;7.25;1.45;;;10.50;99.90;;;;;;5014993;28;20140;-80
2021/01/22 11:05:39;;;;;;;7.80;0.50;;;10.60;99.90;;;;;;5025933;28;20049;-80
2021/01/22 11:08:06;;;;;;;4.75;0.50;;;10.60;99.90;;;;;;5012691;28;20046;-80
2021/01/22 11:10:33;;;;;;;6.10;0.50;;;10.60;99.90;;;;;;5010283;28;20156;-80
2021/01/22 11:13:00;;;;;;;5.93;0.47;;;10.60;99.90;;;;;;5029953;28;20391;-79
2021/01/22 11:15:27;;;;;;;6.35;0.40;;;10.60;99.90;;;;;;5033229;28;20059;-79
2021/01/22 11:17:54;;;;;;;4.28;0.90;;;10.60;99.90;;;;;;5030502;28;20068;-80
2021/01/22 11:20:21;;;;;;;5.35;0.55;;;10.60;99.90;;;;;;5011066;28;20045;-80
2021/01/22 11:22:48;;;;;;;5.25;0.73;;;10.60;99.90;;;;;;5013480;28;20698;-80
2021/01/22 11:25:17;;;;;;;8.07;1.63;;;10.60;99.90;;;;;;5031089;28;20056;-80
2021/01/22 11:27:44;;;;;;;8.07;0.50;;;10.60;99.90;;;;;;5023076;28;20054;-79
2021/01/22 11:30:11;;;;;;;6.97;0.43;;;10.60;99.90;;;;;;5008351;28;20509;-79
2021/01/22 11:32:38;;;;;;;3.72;0.40;;;10.60;99.90;;;;;;5013562;28;20099;-80
2021/01/22 11:35:09;;;;;;;7.00;0.75;;;10.50;99.90;;;;;;5027082;28;20049;-80
2021/01/22 11:37:44;;;;;;;3.67;0.32;;;10.60;99.90;;;;;;5010871;28;20050;-80
2021/01/22 11:40:12;;;;;;;3.88;0.30;;;10.60;99.90;;;;;;5026901;28;20049;-80
2021/01/22 11:42:38;;;;;;;4.88;0.40;;;10.60;99.90;;;;;;5013143;28;20045;-79
2021/01/22 11:45:06;;;;;;;2.40;0.95;;;10.60;99.90;;;;;;5010529;28;20399;-79
2021/01/22 11:47:33;;;;;;;4.53;0.38;;;10.60;99.90;;;;;;5013091;28;20449;-79
2021/01/22 11:50:00;;;;;;;7.38;1.40;;;10.60;99.90;;;;;;5031631;28;20486;-79
2021/01/22 11:52:27;;;;;;;4.47;0.50;;;10.60;99.90;;;;;;5014828;28;20091;-79
2021/01/22 11:54:54;;;;;;;7.55;1.45;;;10.60;99.90;;;;;;5027463;28;20045;-79
2021/01/22 11:57:20;;;;;;;3.67;0.50;;;10.60;99.90;;;;;;5007557;28;20456;-79
2021/01/22 11:59:47;;;;;;;5.63;0.60;;;10.60;99.90;;;;;;5030231;28;20045;-80
2021/01/22 12:02:15;;;;;;;1.50;0.40;;;10.60;99.90;;;;;;5009561;28;20050;-80
2021/01/22 12:04:41;;;;;;;5.32;0.38;;;10.60;99.90;;;;;;5030734;28;20494;-80
2021/01/22 12:07:08;;;;;;;8.82;0.50;;;10.60;99.90;;;;;;5006266;28;20084;-79
2021/01/22 12:09:34;;;;;;;9.20;0.60;;;10.60;99.90;;;;;;5014163;28;20052;-79
2021/01/22 12:12:02;;;;;;;6.95;0.70;;;10.60;99.90;;;;;;5023980;28;20054;-79
2021/01/22 12:14:29;;;;;;;7.65;1.98;;;10.60;99.90;;;;;;5029945;28;20042;-79
2021/01/22 12:16:58;;;;;;;7.75;0.57;;;10.60;99.90;;;;;;5017586;28;20088;-79
2021/01/22 12:19:24;;;;;;;6.53;1.00;;;10.60;99.90;;;;;;5034217;28;20064;-79
2021/01/22 12:21:52;;;;;;;4.60;0.70;;;10.60;99.90;;;;;;5026601;28;20050;-79
2021/01/22 12:24:18;;;;;;;5.18;0.50;;;10.60;99.90;;;;;;5031061;28;20061;-79
2021/01/22 12:26:45;;;;;;;3.45;0.30;;;10.60;99.90;;;;;;5026418;28;20060;-79
2021/01/22 12:29:11;;;;;;;4.25;0.60;;;10.70;99.90;;;;;;5039142;28;20544;-79
2021/01/22 12:31:38;;;;;;;3.90;0.40;;;10.80;99.90;;;;;;5035270;28;20041;-79
2021/01/22 12:34:05;;;;;;;8.75;0.43;;;10.80;99.90;;;;;;5012432;28;20048;-79
2021/01/22 12:36:31;;;;;;;6.20;0.80;;;10.80;99.90;;;;;;5017797;28;20490;-79
2021/01/22 12:38:58;;;;;;;8.32;0.30;;;10.80;99.90;;;;;;5025458;28;20097;-79
2021/01/22 12:41:24;;;;;;;9.98;0.50;;;10.90;99.90;;;;;;5034122;28;20061;-79
2021/01/22 12:43:51;;;;;;;3.80;0.57;;;10.90;99.90;;;;;;5034474;28;20052;-79
2021/01/22 12:46:18;;;;;;;6.40;0.43;;;10.90;99.90;;;;;;5020270;28;20049;-79
2021/01/22 12:48:44;;;;;;;4.82;0.45;;;10.90;99.90;;;;;;5030030;28;20062;-79
2021/01/22 12:51:11;;;;;;;12.90;0.50;;;10.80;99.90;;;;;;5003124;28;20063;-79
2021/01/22 12:53:38;;;;;;;9.65;0.85;;;10.80;99.90;;;;;;5026845;28;20056;-79
2021/01/22 12:56:04;;;;;;;3.50;0.40;;;10.80;99.90;;;;;;5015615;28;20475;-79
2021/01/22 12:58:31;;;;;;;3.20;0.40;;;10.80;99.90;;;;;;5015231;28;20046;-79
2021/01/22 13:00:58;;;;;;;6.85;0.50;;;10.70;99.90;;;;;;5034709;28;20048;-79
2021/01/22 13:03:24;;;;;;;12.43;0.75;;;10.60;99.90;;;;;;5032655;28;20088;-79